Terminal Aerodrome Forecast
Issued by NWS Wakefield, VA

Home | Current Version | Previous Version | Text Only | Print | Product List | Glossary On
Versions: 1 2 3 4 5 6 7 8 9 10 11 12 13 14 15 16 17 18 19
000
FTUS41 KAKQ 020000 AAA
TAFRIC
TAF AMD
KRIC 020059Z 0201/0224 17005KT 3SM BR OVC003
      TEMPO 0201/0203 1SM -DZ BR VV002
     FM020300 22005KT 2SM BR OVC003
     FM020800 23006KT 4SM BR OVC005
     FM021500 34010KT P6SM BKN050=

USA.gov is the U.S. government's official web portal to all federal, state and local government web resources and services.